LBT634 DTTA-LIMC
Flight info
| Callsign | LBT634 |
|---|---|
| Flight time | N/A |
| Altitude | 32000 |
| Route | TOBIB3C TOBIB UA725 OSMAR DCT PIRIX DCT UPDUT DCT CORSI DCT OKROK DCT AKUTI DCT TORTU/N0436F300 DCT ANAKI P860 DEVOX |
| Aircraft | A320/M-SDE3FGHIRWY/LB1 |
Departure
| Time | 2026-04-28 20:38 |
|---|---|
| Airport | Tunis Carthage International Airport (DTTA) |
Arrival
| Time | N/A |
|---|---|
| Airport | Milan Malpensa International Airport (LIMC) |
| Time | Latitude | Longitude | Altitude | Speed | Heading |
|---|---|---|---|---|---|
| 2026-04-28 20:16 | 36.84603 | 10.21998 | 30 ft | 0 kts | 254° |
| 2026-04-28 20:29 | 36.84603 | 10.21999 | 30 ft | 1 kts | 254° |
| 2026-04-28 20:30 | 36.84610 | 10.22028 | 30 ft | 4 kts | 254° |
| 2026-04-28 20:30 | 36.84618 | 10.22058 | 30 ft | 2 kts | 254° |
| 2026-04-28 20:30 | 36.84621 | 10.22083 | 30 ft | 4 kts | 300° |
| 2026-04-28 20:30 | 36.84604 | 10.22094 | 30 ft | 4 kts | 12° |
| 2026-04-28 20:31 | 36.84578 | 10.22087 | 30 ft | 4 kts | 12° |
| 2026-04-28 20:31 | 36.84569 | 10.22085 | 30 ft | 0 kts | 12° |
| 2026-04-28 20:33 | 36.84578 | 10.22087 | 30 ft | 8 kts | 12° |
| 2026-04-28 20:33 | 36.84650 | 10.22106 | 30 ft | 10 kts | 12° |
| 2026-04-28 20:34 | 36.84745 | 10.22113 | 30 ft | 16 kts | 10° |
| 2026-04-28 20:34 | 36.84808 | 10.22083 | 30 ft | 6 kts | 297° |
| 2026-04-28 20:34 | 36.84858 | 10.22057 | 30 ft | 14 kts | 5° |
| 2026-04-28 20:34 | 36.84895 | 10.22148 | 30 ft | 14 kts | 99° |
| 2026-04-28 20:35 | 36.84875 | 10.22279 | 30 ft | 18 kts | 103° |
| 2026-04-28 20:35 | 36.84924 | 10.22375 | 31 ft | 17 kts | 17° |
| 2026-04-28 20:35 | 36.85017 | 10.22332 | 31 ft | 17 kts | 292° |
| 2026-04-28 20:35 | 36.85072 | 10.22168 | 30 ft | 24 kts | 292° |
| 2026-04-28 20:36 | 36.85139 | 10.21966 | 30 ft | 26 kts | 292° |
| 2026-04-28 20:36 | 36.85207 | 10.21766 | 30 ft | 21 kts | 295° |
| 2026-04-28 20:36 | 36.85309 | 10.21730 | 30 ft | 7 kts | 23° |
| 2026-04-28 20:36 | 36.85310 | 10.21730 | 30 ft | 0 kts | 23° |
| 2026-04-28 20:37 | 36.85366 | 10.21761 | 31 ft | 18 kts | 27° |
| 2026-04-28 20:37 | 36.85382 | 10.21903 | 30 ft | 20 kts | 112° |
| 2026-04-28 20:38 | 36.85259 | 10.22272 | 34 ft | 80 kts | 112° |
| 2026-04-28 20:38 | 36.84967 | 10.23149 | 29 ft | 137 kts | 112° |
| 2026-04-28 20:38 | 36.84553 | 10.24373 | 292 ft | 159 kts | 113° |
| 2026-04-28 20:38 | 36.84115 | 10.25656 | 901 ft | 160 kts | 115° |
| 2026-04-28 20:39 | 36.83703 | 10.26903 | 1582 ft | 159 kts | 117° |
| 2026-04-28 20:39 | 36.83269 | 10.28214 | 2045 ft | 172 kts | 117° |
| 2026-04-28 20:39 | 36.82684 | 10.29611 | 2281 ft | 192 kts | 139° |
| 2026-04-28 20:39 | 36.81473 | 10.30312 | 2695 ft | 201 kts | 178° |
| 2026-04-28 20:40 | 36.80131 | 10.29824 | 3272 ft | 210 kts | 218° |
| 2026-04-28 20:40 | 36.79368 | 10.28253 | 3885 ft | 222 kts | 259° |
| 2026-04-28 20:40 | 36.79645 | 10.26342 | 4540 ft | 234 kts | 300° |
| 2026-04-28 20:40 | 36.80837 | 10.24950 | 5202 ft | 240 kts | 328° |
| 2026-04-28 20:41 | 36.82350 | 10.24047 | 5933 ft | 243 kts | 336° |
| 2026-04-28 20:41 | 36.83937 | 10.23301 | 6654 ft | 244 kts | 338° |
| 2026-04-28 20:41 | 36.85564 | 10.22679 | 7340 ft | 249 kts | 349° |
| 2026-04-28 20:41 | 36.87350 | 10.22292 | 7634 ft | 272 kts | 347° |
| 2026-04-28 20:42 | 36.89267 | 10.21795 | 8091 ft | 288 kts | 346° |
| 2026-04-28 20:42 | 36.91234 | 10.21230 | 8836 ft | 292 kts | 345° |
| 2026-04-28 20:42 | 36.93213 | 10.20629 | 9643 ft | 294 kts | 344° |
| 2026-04-28 20:42 | 36.95232 | 10.20001 | 10353 ft | 300 kts | 345° |
| 2026-04-28 20:43 | 36.97303 | 10.19348 | 10565 ft | 322 kts | 344° |
| 2026-04-28 20:43 | 36.99549 | 10.18638 | 10855 ft | 340 kts | 344° |
| 2026-04-28 20:43 | 37.01868 | 10.17911 | 11455 ft | 346 kts | 344° |
| 2026-04-28 20:43 | 37.04248 | 10.17171 | 12160 ft | 350 kts | 344° |
| 2026-04-28 20:44 | 37.06617 | 10.16434 | 12902 ft | 352 kts | 343° |
| 2026-04-28 20:44 | 37.09001 | 10.15690 | 13607 ft | 355 kts | 343° |
| 2026-04-28 20:44 | 37.11327 | 10.14964 | 14223 ft | 358 kts | 343° |
| 2026-04-28 20:44 | 37.13679 | 10.14228 | 14804 ft | 361 kts | 343° |
| 2026-04-28 20:45 | 37.16125 | 10.13460 | 15323 ft | 365 kts | 344° |
| 2026-04-28 20:45 | 37.18612 | 10.12683 | 15859 ft | 369 kts | 343° |
| 2026-04-28 20:45 | 37.21110 | 10.11905 | 16476 ft | 371 kts | 343° |
| 2026-04-28 20:45 | 37.23623 | 10.11121 | 17059 ft | 374 kts | 343° |
| 2026-04-28 20:46 | 37.26165 | 10.10327 | 17637 ft | 378 kts | 343° |
| 2026-04-28 20:46 | 37.28651 | 10.09551 | 18216 ft | 381 kts | 343° |
| 2026-04-28 20:46 | 37.31236 | 10.08744 | 18710 ft | 384 kts | 343° |
| 2026-04-28 20:46 | 37.33838 | 10.07928 | 19223 ft | 387 kts | 343° |